sensor_id;sensor_type;location;lat;lon;timestamp;P1;durP1;ratioP1;P2;durP2;ratioP2
51288;SDS011;37372;52.294;5.152;2023-07-29T00:01:46;2.55;;;1.13;;
51288;SDS011;37372;52.294;5.152;2023-07-29T00:04:19;2.80;;;1.23;;
51288;SDS011;37372;52.294;5.152;2023-07-29T00:07:01;4.32;;;1.50;;
51288;SDS011;37372;52.294;5.152;2023-07-29T00:09:26;2.42;;;1.20;;
51288;SDS011;37372;52.294;5.152;2023-07-29T00:11:52;2.33;;;0.90;;
51288;SDS011;37372;52.294;5.152;2023-07-29T00:14:21;2.67;;;1.17;;
51288;SDS011;37372;52.294;5.152;2023-07-29T00:16:50;4.25;;;1.13;;
51288;SDS011;37372;52.294;5.152;2023-07-29T00:19:24;3.28;;;1.00;;
51288;SDS011;37372;52.294;5.152;2023-07-29T00:21:54;3.35;;;1.13;;
51288;SDS011;37372;52.294;5.152;2023-07-29T00:24:22;7.05;;;1.30;;
51288;SDS011;37372;52.294;5.152;2023-07-29T00:26:55;3.90;;;1.08;;
51288;SDS011;37372;52.294;5.152;2023-07-29T00:29:32;2.33;;;1.00;;
51288;SDS011;37372;52.294;5.152;2023-07-29T00:31:57;5.63;;;1.05;;
51288;SDS011;37372;52.294;5.152;2023-07-29T00:34:34;2.40;;;1.17;;
51288;SDS011;37372;52.294;5.152;2023-07-29T00:37:02;4.32;;;0.93;;
51288;SDS011;37372;52.294;5.152;2023-07-29T00:39:31;5.75;;;1.10;;
51288;SDS011;37372;52.294;5.152;2023-07-29T00:41:59;2.35;;;1.20;;
51288;SDS011;37372;52.294;5.152;2023-07-29T00:44:26;2.38;;;1.10;;
51288;SDS011;37372;52.294;5.152;2023-07-29T00:47:11;6.25;;;1.58;;
51288;SDS011;37372;52.294;5.152;2023-07-29T00:49:46;3.40;;;1.42;;
51288;SDS011;37372;52.294;5.152;2023-07-29T00:52:12;4.50;;;1.50;;
51288;SDS011;37372;52.294;5.152;2023-07-29T00:54:39;3.53;;;1.38;;
51288;SDS011;37372;52.294;5.152;2023-07-29T00:57:06;3.22;;;1.30;;
51288;SDS011;37372;52.294;5.152;2023-07-29T00:59:36;5.20;;;1.17;;
51288;SDS011;37372;52.294;5.152;2023-07-29T01:02:02;6.15;;;1.45;;
51288;SDS011;37372;52.294;5.152;2023-07-29T01:04:31;5.97;;;1.52;;
51288;SDS011;37372;52.294;5.152;2023-07-29T01:09:55;2.72;;;1.10;;
51288;SDS011;37372;52.294;5.152;2023-07-29T01:18:30;5.30;;;1.50;;
51288;SDS011;37372;52.294;5.152;2023-07-29T01:21:03;5.50;;;1.38;;
51288;SDS011;37372;52.294;5.152;2023-07-29T01:23:30;6.50;;;1.63;;
51288;SDS011;37372;52.294;5.152;2023-07-29T01:26:01;4.18;;;1.48;;
51288;SDS011;37372;52.294;5.152;2023-07-29T01:28:30;4.47;;;1.38;;
51288;SDS011;37372;52.294;5.152;2023-07-29T01:31:10;6.47;;;1.63;;
51288;SDS011;37372;52.294;5.152;2023-07-29T01:33:42;6.60;;;2.05;;
51288;SDS011;37372;52.294;5.152;2023-07-29T01:36:21;6.32;;;2.30;;
51288;SDS011;37372;52.294;5.152;2023-07-29T01:38:48;4.65;;;1.88;;
51288;SDS011;37372;52.294;5.152;2023-07-29T01:41:15;4.05;;;1.80;;
51288;SDS011;37372;52.294;5.152;2023-07-29T01:43:42;6.40;;;1.98;;
51288;SDS011;37372;52.294;5.152;2023-07-29T01:46:11;4.75;;;1.73;;
51288;SDS011;37372;52.294;5.152;2023-07-29T01:48:42;7.35;;;2.05;;
51288;SDS011;37372;52.294;5.152;2023-07-29T01:51:30;7.47;;;2.47;;
51288;SDS011;37372;52.294;5.152;2023-07-29T01:53:57;6.05;;;3.05;;
51288;SDS011;37372;52.294;5.152;2023-07-29T01:56:24;4.55;;;1.80;;
51288;SDS011;37372;52.294;5.152;2023-07-29T01:58:50;6.45;;;2.53;;
51288;SDS011;37372;52.294;5.152;2023-07-29T02:01:16;8.48;;;2.33;;
51288;SDS011;37372;52.294;5.152;2023-07-29T02:03:45;5.07;;;2.17;;
51288;SDS011;37372;52.294;5.152;2023-07-29T02:06:10;7.20;;;3.00;;
51288;SDS011;37372;52.294;5.152;2023-07-29T02:08:36;6.15;;;3.28;;
51288;SDS011;37372;52.294;5.152;2023-07-29T02:11:02;5.82;;;2.10;;
51288;SDS011;37372;52.294;5.152;2023-07-29T02:13:28;6.90;;;2.40;;
51288;SDS011;37372;52.294;5.152;2023-07-29T02:15:53;7.63;;;3.13;;
51288;SDS011;37372;52.294;5.152;2023-07-29T02:18:19;8.40;;;2.33;;
51288;SDS011;37372;52.294;5.152;2023-07-29T02:20:44;8.07;;;2.45;;
51288;SDS011;37372;52.294;5.152;2023-07-29T02:23:14;7.22;;;2.08;;
51288;SDS011;37372;52.294;5.152;2023-07-29T02:25:41;7.57;;;2.50;;
51288;SDS011;37372;52.294;5.152;2023-07-29T02:28:09;11.13;;;2.75;;
51288;SDS011;37372;52.294;5.152;2023-07-29T02:30:35;8.43;;;2.70;;
51288;SDS011;37372;52.294;5.152;2023-07-29T02:33:05;7.80;;;2.72;;
51288;SDS011;37372;52.294;5.152;2023-07-29T02:35:31;5.90;;;2.80;;
51288;SDS011;37372;52.294;5.152;2023-07-29T02:37:56;7.40;;;2.85;;
51288;SDS011;37372;52.294;5.152;2023-07-29T02:40:22;7.18;;;2.70;;
51288;SDS011;37372;52.294;5.152;2023-07-29T02:42:48;6.72;;;2.88;;
51288;SDS011;37372;52.294;5.152;2023-07-29T02:45:14;8.57;;;3.25;;
51288;SDS011;37372;52.294;5.152;2023-07-29T02:47:44;9.27;;;3.92;;
51288;SDS011;37372;52.294;5.152;2023-07-29T02:50:10;7.55;;;3.28;;
51288;SDS011;37372;52.294;5.152;2023-07-29T02:52:36;8.43;;;3.60;;
51288;SDS011;37372;52.294;5.152;2023-07-29T02:55:01;6.28;;;2.88;;
51288;SDS011;37372;52.294;5.152;2023-07-29T02:57:27;6.45;;;3.03;;
51288;SDS011;37372;52.294;5.152;2023-07-29T02:59:53;9.82;;;3.28;;
51288;SDS011;37372;52.294;5.152;2023-07-29T03:02:23;6.95;;;3.08;;
51288;SDS011;37372;52.294;5.152;2023-07-29T03:04:52;8.45;;;3.75;;
51288;SDS011;37372;52.294;5.152;2023-07-29T03:07:17;9.88;;;4.32;;
51288;SDS011;37372;52.294;5.152;2023-07-29T03:09:43;8.88;;;3.60;;
51288;SDS011;37372;52.294;5.152;2023-07-29T03:12:10;6.72;;;3.20;;
51288;SDS011;37372;52.294;5.152;2023-07-29T03:14:35;10.98;;;3.58;;
51288;SDS011;37372;52.294;5.152;2023-07-29T03:17:04;6.72;;;2.90;;
51288;SDS011;37372;52.294;5.152;2023-07-29T03:19:30;9.45;;;3.30;;
51288;SDS011;37372;52.294;5.152;2023-07-29T03:21:59;7.07;;;2.97;;
51288;SDS011;37372;52.294;5.152;2023-07-29T03:24:26;7.60;;;3.15;;
51288;SDS011;37372;52.294;5.152;2023-07-29T03:26:58;7.10;;;3.05;;
51288;SDS011;37372;52.294;5.152;2023-07-29T03:29:24;10.60;;;3.33;;
51288;SDS011;37372;52.294;5.152;2023-07-29T03:31:59;8.23;;;3.40;;
51288;SDS011;37372;52.294;5.152;2023-07-29T03:34:31;8.77;;;4.15;;
51288;SDS011;37372;52.294;5.152;2023-07-29T03:37:05;6.25;;;2.90;;
51288;SDS011;37372;52.294;5.152;2023-07-29T03:39:32;7.35;;;3.10;;
51288;SDS011;37372;52.294;5.152;2023-07-29T03:42:02;7.22;;;3.22;;
51288;SDS011;37372;52.294;5.152;2023-07-29T03:44:29;5.68;;;2.58;;
51288;SDS011;37372;52.294;5.152;2023-07-29T03:47:01;7.40;;;2.90;;
51288;SDS011;37372;52.294;5.152;2023-07-29T03:49:27;6.05;;;2.88;;
51288;SDS011;37372;52.294;5.152;2023-07-29T03:52:02;7.30;;;2.60;;
51288;SDS011;37372;52.294;5.152;2023-07-29T03:54:29;6.85;;;2.70;;
51288;SDS011;37372;52.294;5.152;2023-07-29T03:57:02;6.32;;;2.90;;
51288;SDS011;37372;52.294;5.152;2023-07-29T03:59:30;7.45;;;2.90;;
51288;SDS011;37372;52.294;5.152;2023-07-29T04:02:07;8.02;;;2.88;;
51288;SDS011;37372;52.294;5.152;2023-07-29T04:04:43;6.93;;;3.28;;
51288;SDS011;37372;52.294;5.152;2023-07-29T04:07:13;6.63;;;3.25;;
51288;SDS011;37372;52.294;5.152;2023-07-29T04:09:45;8.18;;;3.47;;
51288;SDS011;37372;52.294;5.152;2023-07-29T04:12:12;6.15;;;2.70;;
51288;SDS011;37372;52.294;5.152;2023-07-29T04:14:41;5.70;;;3.30;;
51288;SDS011;37372;52.294;5.152;2023-07-29T04:17:07;6.88;;;3.20;;
51288;SDS011;37372;52.294;5.152;2023-07-29T04:19:55;6.30;;;2.65;;
51288;SDS011;37372;52.294;5.152;2023-07-29T04:22:20;6.75;;;2.47;;
51288;SDS011;37372;52.294;5.152;2023-07-29T04:24:49;11.02;;;3.35;;
51288;SDS011;37372;52.294;5.152;2023-07-29T04:27:21;7.97;;;4.03;;
51288;SDS011;37372;52.294;5.152;2023-07-29T04:29:46;7.05;;;2.55;;
51288;SDS011;37372;52.294;5.152;2023-07-29T04:32:16;6.50;;;2.90;;
51288;SDS011;37372;52.294;5.152;2023-07-29T04:34:46;8.55;;;3.00;;
51288;SDS011;37372;52.294;5.152;2023-07-29T04:37:21;5.38;;;2.28;;
51288;SDS011;37372;52.294;5.152;2023-07-29T04:39:47;4.75;;;2.60;;
51288;SDS011;37372;52.294;5.152;2023-07-29T04:42:16;8.30;;;2.45;;
51288;SDS011;37372;52.294;5.152;2023-07-29T04:44:54;6.88;;;2.80;;
51288;SDS011;37372;52.294;5.152;2023-07-29T04:47:23;5.10;;;2.60;;
51288;SDS011;37372;52.294;5.152;2023-07-29T04:49:52;7.85;;;3.10;;
51288;SDS011;37372;52.294;5.152;2023-07-29T04:52:40;11.15;;;3.00;;
51288;SDS011;37372;52.294;5.152;2023-07-29T04:55:06;5.68;;;2.85;;
51288;SDS011;37372;52.294;5.152;2023-07-29T04:57:32;7.25;;;2.58;;
51288;SDS011;37372;52.294;5.152;2023-07-29T04:59:57;7.80;;;3.17;;
51288;SDS011;37372;52.294;5.152;2023-07-29T05:02:23;7.75;;;3.65;;
51288;SDS011;37372;52.294;5.152;2023-07-29T05:04:59;6.93;;;2.67;;
51288;SDS011;37372;52.294;5.152;2023-07-29T05:07:24;7.07;;;2.78;;
51288;SDS011;37372;52.294;5.152;2023-07-29T05:13:06;6.47;;;3.78;;
51288;SDS011;37372;52.294;5.152;2023-07-29T05:15:38;5.65;;;2.28;;
51288;SDS011;37372;52.294;5.152;2023-07-29T05:18:11;6.80;;;2.75;;
51288;SDS011;37372;52.294;5.152;2023-07-29T05:20:40;7.13;;;2.63;;
51288;SDS011;37372;52.294;5.152;2023-07-29T05:23:05;7.97;;;2.90;;
51288;SDS011;37372;52.294;5.152;2023-07-29T05:25:31;7.07;;;2.85;;
51288;SDS011;37372;52.294;5.152;2023-07-29T05:27:57;5.45;;;2.65;;
51288;SDS011;37372;52.294;5.152;2023-07-29T05:30:23;7.78;;;3.80;;
51288;SDS011;37372;52.294;5.152;2023-07-29T05:32:49;5.45;;;2.75;;
51288;SDS011;37372;52.294;5.152;2023-07-29T05:38:01;11.18;;;3.60;;
51288;SDS011;37372;52.294;5.152;2023-07-29T05:40:30;6.88;;;2.90;;
51288;SDS011;37372;52.294;5.152;2023-07-29T05:42:56;6.93;;;3.15;;
51288;SDS011;37372;52.294;5.152;2023-07-29T05:45:23;7.22;;;3.30;;
51288;SDS011;37372;52.294;5.152;2023-07-29T05:47:58;11.57;;;3.22;;
51288;SDS011;37372;52.294;5.152;2023-07-29T05:53:01;8.68;;;3.15;;
51288;SDS011;37372;52.294;5.152;2023-07-29T05:55:34;10.73;;;3.50;;
51288;SDS011;37372;52.294;5.152;2023-07-29T05:58:06;6.25;;;2.92;;
51288;SDS011;37372;52.294;5.152;2023-07-29T06:01:00;9.50;;;3.53;;
51288;SDS011;37372;52.294;5.152;2023-07-29T06:03:26;9.27;;;3.40;;
51288;SDS011;37372;52.294;5.152;2023-07-29T06:05:54;9.35;;;3.28;;
51288;SDS011;37372;52.294;5.152;2023-07-29T06:08:20;6.82;;;3.20;;
51288;SDS011;37372;52.294;5.152;2023-07-29T06:10:46;7.80;;;3.30;;
51288;SDS011;37372;52.294;5.152;2023-07-29T06:13:11;7.50;;;3.40;;
51288;SDS011;37372;52.294;5.152;2023-07-29T06:15:39;7.18;;;3.45;;
51288;SDS011;37372;52.294;5.152;2023-07-29T06:18:04;7.80;;;3.45;;
51288;SDS011;37372;52.294;5.152;2023-07-29T06:20:39;8.52;;;3.58;;
51288;SDS011;37372;52.294;5.152;2023-07-29T06:23:08;7.85;;;3.30;;
51288;SDS011;37372;52.294;5.152;2023-07-29T06:25:43;7.90;;;4.05;;
51288;SDS011;37372;52.294;5.152;2023-07-29T06:31:06;8.55;;;3.65;;
51288;SDS011;37372;52.294;5.152;2023-07-29T06:33:32;5.97;;;2.85;;
51288;SDS011;37372;52.294;5.152;2023-07-29T06:36:03;15.50;;;4.53;;
51288;SDS011;37372;52.294;5.152;2023-07-29T06:38:29;12.02;;;3.67;;
51288;SDS011;37372;52.294;5.152;2023-07-29T06:40:55;9.68;;;3.55;;
51288;SDS011;37372;52.294;5.152;2023-07-29T06:43:23;8.68;;;3.67;;
51288;SDS011;37372;52.294;5.152;2023-07-29T06:45:51;6.97;;;4.07;;
51288;SDS011;37372;52.294;5.152;2023-07-29T06:48:16;7.53;;;3.15;;
51288;SDS011;37372;52.294;5.152;2023-07-29T06:50:54;8.27;;;3.50;;
51288;SDS011;37372;52.294;5.152;2023-07-29T06:53:20;8.15;;;3.25;;
51288;SDS011;37372;52.294;5.152;2023-07-29T06:55:55;8.52;;;3.47;;
51288;SDS011;37372;52.294;5.152;2023-07-29T06:58:21;12.48;;;4.32;;
51288;SDS011;37372;52.294;5.152;2023-07-29T07:00:47;9.90;;;4.05;;
51288;SDS011;37372;52.294;5.152;2023-07-29T07:03:13;7.25;;;3.88;;
51288;SDS011;37372;52.294;5.152;2023-07-29T07:05:50;10.55;;;4.38;;
51288;SDS011;37372;52.294;5.152;2023-07-29T07:08:16;7.55;;;3.83;;
51288;SDS011;37372;52.294;5.152;2023-07-29T07:10:48;8.63;;;3.70;;
51288;SDS011;37372;52.294;5.152;2023-07-29T07:13:17;9.52;;;4.40;;
51288;SDS011;37372;52.294;5.152;2023-07-29T07:15:55;7.13;;;3.40;;
51288;SDS011;37372;52.294;5.152;2023-07-29T07:18:21;10.82;;;4.47;;
51288;SDS011;37372;52.294;5.152;2023-07-29T07:20:51;7.63;;;3.33;;
51288;SDS011;37372;52.294;5.152;2023-07-29T07:23:19;6.38;;;3.28;;
51288;SDS011;37372;52.294;5.152;2023-07-29T07:25:46;5.93;;;3.08;;
51288;SDS011;37372;52.294;5.152;2023-07-29T07:28:23;9.05;;;3.92;;
51288;SDS011;37372;52.294;5.152;2023-07-29T07:30:52;8.85;;;3.35;;
51288;SDS011;37372;52.294;5.152;2023-07-29T07:33:24;8.95;;;3.65;;
51288;SDS011;37372;52.294;5.152;2023-07-29T07:35:52;8.65;;;3.75;;
51288;SDS011;37372;52.294;5.152;2023-07-29T07:38:19;7.22;;;3.03;;
51288;SDS011;37372;52.294;5.152;2023-07-29T07:40:55;7.25;;;3.42;;
51288;SDS011;37372;52.294;5.152;2023-07-29T07:43:31;6.25;;;2.83;;
51288;SDS011;37372;52.294;5.152;2023-07-29T07:46:00;9.15;;;3.10;;
51288;SDS011;37372;52.294;5.152;2023-07-29T07:48:27;8.07;;;3.60;;
51288;SDS011;37372;52.294;5.152;2023-07-29T07:50:57;9.18;;;3.50;;
51288;SDS011;37372;52.294;5.152;2023-07-29T07:53:22;10.15;;;3.75;;
51288;SDS011;37372;52.294;5.152;2023-07-29T07:55:57;11.88;;;3.65;;
51288;SDS011;37372;52.294;5.152;2023-07-29T07:58:23;9.32;;;2.75;;
51288;SDS011;37372;52.294;5.152;2023-07-29T08:00:49;9.00;;;3.50;;
51288;SDS011;37372;52.294;5.152;2023-07-29T08:03:17;8.27;;;4.03;;
51288;SDS011;37372;52.294;5.152;2023-07-29T08:05:42;7.50;;;3.20;;
51288;SDS011;37372;52.294;5.152;2023-07-29T08:08:08;9.05;;;4.65;;
51288;SDS011;37372;52.294;5.152;2023-07-29T08:10:34;6.68;;;2.83;;
51288;SDS011;37372;52.294;5.152;2023-07-29T08:12:59;7.03;;;3.50;;
51288;SDS011;37372;52.294;5.152;2023-07-29T08:18:30;6.90;;;3.13;;
51288;SDS011;37372;52.294;5.152;2023-07-29T08:20:57;7.93;;;2.95;;
51288;SDS011;37372;52.294;5.152;2023-07-29T08:23:34;6.18;;;2.40;;
51288;SDS011;37372;52.294;5.152;2023-07-29T08:26:05;4.35;;;2.20;;
51288;SDS011;37372;52.294;5.152;2023-07-29T08:28:34;5.65;;;2.15;;
51288;SDS011;37372;52.294;5.152;2023-07-29T08:31:13;8.95;;;4.03;;
51288;SDS011;37372;52.294;5.152;2023-07-29T08:33:39;12.93;;;4.57;;
51288;SDS011;37372;52.294;5.152;2023-07-29T08:36:10;6.72;;;2.97;;
51288;SDS011;37372;52.294;5.152;2023-07-29T08:38:44;7.07;;;3.00;;
51288;SDS011;37372;52.294;5.152;2023-07-29T08:44:40;10.38;;;3.63;;
51288;SDS011;37372;52.294;5.152;2023-07-29T08:47:19;7.78;;;2.75;;
51288;SDS011;37372;52.294;5.152;2023-07-29T08:49:44;4.55;;;2.10;;
51288;SDS011;37372;52.294;5.152;2023-07-29T08:52:11;8.27;;;1.88;;
51288;SDS011;37372;52.294;5.152;2023-07-29T08:54:39;6.20;;;1.63;;
51288;SDS011;37372;52.294;5.152;2023-07-29T08:57:05;7.22;;;1.77;;
51288;SDS011;37372;52.294;5.152;2023-07-29T08:59:32;7.60;;;2.03;;
51288;SDS011;37372;52.294;5.152;2023-07-29T09:01:58;3.28;;;1.17;;
51288;SDS011;37372;52.294;5.152;2023-07-29T09:04:26;4.57;;;2.05;;
51288;SDS011;37372;52.294;5.152;2023-07-29T09:06:53;5.65;;;1.70;;
51288;SDS011;37372;52.294;5.152;2023-07-29T09:09:41;4.05;;;1.98;;
51288;SDS011;37372;52.294;5.152;2023-07-29T09:12:10;4.00;;;1.63;;
51288;SDS011;37372;52.294;5.152;2023-07-29T09:14:40;4.25;;;1.40;;
51288;SDS011;37372;52.294;5.152;2023-07-29T09:17:09;4.25;;;1.48;;
51288;SDS011;37372;52.294;5.152;2023-07-29T09:19:35;4.57;;;1.38;;
51288;SDS011;37372;52.294;5.152;2023-07-29T09:22:01;2.55;;;1.17;;
51288;SDS011;37372;52.294;5.152;2023-07-29T09:24:26;5.75;;;1.52;;
51288;SDS011;37372;52.294;5.152;2023-07-29T09:26:55;3.53;;;1.38;;
51288;SDS011;37372;52.294;5.152;2023-07-29T09:29:24;4.20;;;1.70;;
51288;SDS011;37372;52.294;5.152;2023-07-29T09:31:53;4.25;;;1.63;;
51288;SDS011;37372;52.294;5.152;2023-07-29T09:34:18;5.60;;;1.40;;
51288;SDS011;37372;52.294;5.152;2023-07-29T09:36:44;8.30;;;2.53;;
51288;SDS011;37372;52.294;5.152;2023-07-29T09:39:10;6.75;;;1.70;;
51288;SDS011;37372;52.294;5.152;2023-07-29T09:41:41;6.53;;;2.05;;
51288;SDS011;37372;52.294;5.152;2023-07-29T09:44:13;7.65;;;2.08;;
51288;SDS011;37372;52.294;5.152;2023-07-29T09:46:38;4.32;;;2.00;;
51288;SDS011;37372;52.294;5.152;2023-07-29T09:49:14;6.97;;;2.00;;
51288;SDS011;37372;52.294;5.152;2023-07-29T09:51:39;4.45;;;1.52;;
51288;SDS011;37372;52.294;5.152;2023-07-29T09:54:05;7.85;;;1.88;;
51288;SDS011;37372;52.294;5.152;2023-07-29T09:56:30;12.15;;;2.50;;
51288;SDS011;37372;52.294;5.152;2023-07-29T09:58:56;4.85;;;2.10;;
51288;SDS011;37372;52.294;5.152;2023-07-29T10:01:25;6.40;;;1.92;;
51288;SDS011;37372;52.294;5.152;2023-07-29T10:03:54;6.68;;;2.15;;
51288;SDS011;37372;52.294;5.152;2023-07-29T10:06:26;5.53;;;2.58;;
51288;SDS011;37372;52.294;5.152;2023-07-29T10:08:52;4.22;;;1.50;;
51288;SDS011;37372;52.294;5.152;2023-07-29T10:11:24;5.82;;;2.40;;
51288;SDS011;37372;52.294;5.152;2023-07-29T10:13:54;5.30;;;2.03;;
51288;SDS011;37372;52.294;5.152;2023-07-29T10:16:20;6.75;;;1.90;;
51288;SDS011;37372;52.294;5.152;2023-07-29T10:18:52;9.63;;;2.13;;
51288;SDS011;37372;52.294;5.152;2023-07-29T10:21:19;5.22;;;1.38;;
51288;SDS011;37372;52.294;5.152;2023-07-29T10:23:48;6.28;;;1.88;;
51288;SDS011;37372;52.294;5.152;2023-07-29T10:26:21;5.55;;;1.40;;
51288;SDS011;37372;52.294;5.152;2023-07-29T10:28:53;4.82;;;1.40;;
51288;SDS011;37372;52.294;5.152;2023-07-29T10:31:29;10.98;;;2.00;;
51288;SDS011;37372;52.294;5.152;2023-07-29T10:33:58;6.40;;;1.83;;
51288;SDS011;37372;52.294;5.152;2023-07-29T10:36:24;5.53;;;1.65;;
51288;SDS011;37372;52.294;5.152;2023-07-29T10:38:56;7.03;;;2.13;;
51288;SDS011;37372;52.294;5.152;2023-07-29T10:47:12;6.53;;;1.75;;
51288;SDS011;37372;52.294;5.152;2023-07-29T10:49:45;3.22;;;1.40;;
51288;SDS011;37372;52.294;5.152;2023-07-29T10:52:14;6.03;;;1.50;;
51288;SDS011;37372;52.294;5.152;2023-07-29T10:54:42;5.20;;;1.52;;
51288;SDS011;37372;52.294;5.152;2023-07-29T10:57:13;6.80;;;1.73;;
51288;SDS011;37372;52.294;5.152;2023-07-29T11:00:03;3.50;;;1.38;;
51288;SDS011;37372;52.294;5.152;2023-07-29T11:02:30;5.50;;;2.13;;
51288;SDS011;37372;52.294;5.152;2023-07-29T11:05:06;5.50;;;1.83;;
51288;SDS011;37372;52.294;5.152;2023-07-29T11:07:44;6.45;;;1.73;;
51288;SDS011;37372;52.294;5.152;2023-07-29T11:10:11;3.50;;;1.63;;
51288;SDS011;37372;52.294;5.152;2023-07-29T11:12:52;7.20;;;2.00;;
51288;SDS011;37372;52.294;5.152;2023-07-29T11:20:15;6.43;;;2.38;;
51288;SDS011;37372;52.294;5.152;2023-07-29T11:22:47;9.48;;;3.10;;
51288;SDS011;37372;52.294;5.152;2023-07-29T11:25:16;6.93;;;2.30;;
51288;SDS011;37372;52.294;5.152;2023-07-29T11:27:48;7.35;;;2.17;;
51288;SDS011;37372;52.294;5.152;2023-07-29T11:30:24;3.80;;;2.08;;
51288;SDS011;37372;52.294;5.152;2023-07-29T11:32:55;5.90;;;2.10;;
51288;SDS011;37372;52.294;5.152;2023-07-29T11:35:23;4.90;;;2.03;;
51288;SDS011;37372;52.294;5.152;2023-07-29T11:37:49;5.28;;;1.83;;
51288;SDS011;37372;52.294;5.152;2023-07-29T11:40:17;3.60;;;1.50;;
51288;SDS011;37372;52.294;5.152;2023-07-29T11:42:47;2.50;;;1.40;;
51288;SDS011;37372;52.294;5.152;2023-07-29T11:45:17;3.28;;;1.40;;
51288;SDS011;37372;52.294;5.152;2023-07-29T11:47:47;2.58;;;1.40;;
51288;SDS011;37372;52.294;5.152;2023-07-29T11:50:13;4.28;;;2.03;;
51288;SDS011;37372;52.294;5.152;2023-07-29T11:52:40;4.22;;;1.70;;
51288;SDS011;37372;52.294;5.152;2023-07-29T11:55:07;3.33;;;1.40;;
51288;SDS011;37372;52.294;5.152;2023-07-29T11:57:34;3.38;;;1.90;;
51288;SDS011;37372;52.294;5.152;2023-07-29T12:00:05;5.45;;;1.30;;
51288;SDS011;37372;52.294;5.152;2023-07-29T12:02:36;3.20;;;1.05;;
51288;SDS011;37372;52.294;5.152;2023-07-29T12:05:04;2.72;;;1.23;;
51288;SDS011;37372;52.294;5.152;2023-07-29T12:07:31;3.00;;;1.20;;
51288;SDS011;37372;52.294;5.152;2023-07-29T12:09:59;2.55;;;0.77;;
51288;SDS011;37372;52.294;5.152;2023-07-29T12:12:26;2.85;;;1.00;;
51288;SDS011;37372;52.294;5.152;2023-07-29T12:14:53;2.33;;;0.90;;
51288;SDS011;37372;52.294;5.152;2023-07-29T12:17:19;2.72;;;0.90;;
51288;SDS011;37372;52.294;5.152;2023-07-29T12:19:45;2.50;;;0.80;;
51288;SDS011;37372;52.294;5.152;2023-07-29T12:22:10;1.85;;;0.82;;
51288;SDS011;37372;52.294;5.152;2023-07-29T12:24:39;2.97;;;0.90;;
51288;SDS011;37372;52.294;5.152;2023-07-29T12:27:10;2.83;;;1.00;;
51288;SDS011;37372;52.294;5.152;2023-07-29T12:29:42;5.35;;;1.00;;
51288;SDS011;37372;52.294;5.152;2023-07-29T12:32:16;1.42;;;0.98;;
51288;SDS011;37372;52.294;5.152;2023-07-29T12:34:58;2.05;;;1.27;;
51288;SDS011;37372;52.294;5.152;2023-07-29T12:37:30;1.92;;;1.10;;
51288;SDS011;37372;52.294;5.152;2023-07-29T12:40:00;1.80;;;1.02;;
51288;SDS011;37372;52.294;5.152;2023-07-29T12:42:26;3.38;;;1.40;;
51288;SDS011;37372;52.294;5.152;2023-07-29T12:44:51;2.47;;;1.73;;
51288;SDS011;37372;52.294;5.152;2023-07-29T12:47:17;2.92;;;1.30;;
51288;SDS011;37372;52.294;5.152;2023-07-29T12:49:50;4.63;;;1.55;;
51288;SDS011;37372;52.294;5.152;2023-07-29T12:52:16;2.65;;;1.30;;
51288;SDS011;37372;52.294;5.152;2023-07-29T12:54:42;2.58;;;1.10;;
51288;SDS011;37372;52.294;5.152;2023-07-29T12:57:09;4.10;;;1.45;;
51288;SDS011;37372;52.294;5.152;2023-07-29T12:59:34;2.85;;;1.10;;
51288;SDS011;37372;52.294;5.152;2023-07-29T13:02:00;2.83;;;1.50;;
51288;SDS011;37372;52.294;5.152;2023-07-29T13:04:25;3.47;;;1.45;;
51288;SDS011;37372;52.294;5.152;2023-07-29T13:06:58;3.60;;;1.48;;
51288;SDS011;37372;52.294;5.152;2023-07-29T13:09:27;2.55;;;1.52;;
51288;SDS011;37372;52.294;5.152;2023-07-29T13:11:59;4.80;;;1.40;;
51288;SDS011;37372;52.294;5.152;2023-07-29T13:14:25;3.20;;;1.70;;
51288;SDS011;37372;52.294;5.152;2023-07-29T13:17:13;4.03;;;1.77;;
51288;SDS011;37372;52.294;5.152;2023-07-29T13:19:38;3.20;;;1.23;;
51288;SDS011;37372;52.294;5.152;2023-07-29T13:22:04;3.33;;;1.48;;
51288;SDS011;37372;52.294;5.152;2023-07-29T13:24:30;3.15;;;1.48;;
51288;SDS011;37372;52.294;5.152;2023-07-29T13:27:16;3.67;;;1.45;;
51288;SDS011;37372;52.294;5.152;2023-07-29T13:29:42;4.43;;;1.33;;
51288;SDS011;37372;52.294;5.152;2023-07-29T13:32:21;4.53;;;1.63;;
51288;SDS011;37372;52.294;5.152;2023-07-29T13:34:50;5.82;;;1.88;;
51288;SDS011;37372;52.294;5.152;2023-07-29T13:37:16;3.20;;;1.33;;
51288;SDS011;37372;52.294;5.152;2023-07-29T13:39:41;7.88;;;1.92;;
51288;SDS011;37372;52.294;5.152;2023-07-29T13:42:11;5.25;;;1.38;;
51288;SDS011;37372;52.294;5.152;2023-07-29T13:44:36;2.50;;;1.27;;
51288;SDS011;37372;52.294;5.152;2023-07-29T13:47:09;2.95;;;1.20;;
51288;SDS011;37372;52.294;5.152;2023-07-29T13:49:35;3.35;;;1.38;;
51288;SDS011;37372;52.294;5.152;2023-07-29T13:52:10;7.05;;;1.30;;
51288;SDS011;37372;52.294;5.152;2023-07-29T13:54:37;3.95;;;1.50;;
51288;SDS011;37372;52.294;5.152;2023-07-29T13:57:04;4.88;;;1.40;;
51288;SDS011;37372;52.294;5.152;2023-07-29T13:59:37;2.35;;;0.95;;
51288;SDS011;37372;52.294;5.152;2023-07-29T14:02:04;6.43;;;1.58;;
51288;SDS011;37372;52.294;5.152;2023-07-29T14:07:33;4.03;;;1.65;;
51288;SDS011;37372;52.294;5.152;2023-07-29T14:10:02;2.75;;;1.13;;
51288;SDS011;37372;52.294;5.152;2023-07-29T14:12:28;2.55;;;1.10;;
51288;SDS011;37372;52.294;5.152;2023-07-29T14:15:03;3.63;;;1.20;;
51288;SDS011;37372;52.294;5.152;2023-07-29T14:17:29;2.35;;;1.13;;
51288;SDS011;37372;52.294;5.152;2023-07-29T14:19:54;2.20;;;1.10;;
51288;SDS011;37372;52.294;5.152;2023-07-29T14:22:20;4.07;;;1.17;;
51288;SDS011;37372;52.294;5.152;2023-07-29T14:24:46;4.57;;;0.90;;
51288;SDS011;37372;52.294;5.152;2023-07-29T14:27:15;5.38;;;1.52;;
51288;SDS011;37372;52.294;5.152;2023-07-29T14:29:42;3.15;;;1.10;;
51288;SDS011;37372;52.294;5.152;2023-07-29T14:32:09;5.57;;;2.08;;
51288;SDS011;37372;52.294;5.152;2023-07-29T14:34:45;3.67;;;1.52;;
51288;SDS011;37372;52.294;5.152;2023-07-29T14:37:15;3.80;;;1.00;;
51288;SDS011;37372;52.294;5.152;2023-07-29T14:39:45;4.85;;;1.20;;
51288;SDS011;37372;52.294;5.152;2023-07-29T14:42:20;5.10;;;1.27;;
51288;SDS011;37372;52.294;5.152;2023-07-29T14:44:45;4.85;;;1.35;;
51288;SDS011;37372;52.294;5.152;2023-07-29T14:47:12;3.90;;;1.17;;
51288;SDS011;37372;52.294;5.152;2023-07-29T14:49:43;5.68;;;1.20;;
51288;SDS011;37372;52.294;5.152;2023-07-29T14:52:12;1.92;;;0.93;;
51288;SDS011;37372;52.294;5.152;2023-07-29T14:54:40;4.05;;;0.93;;
51288;SDS011;37372;52.294;5.152;2023-07-29T14:57:06;3.50;;;1.10;;
51288;SDS011;37372;52.294;5.152;2023-07-29T14:59:44;5.32;;;0.98;;
51288;SDS011;37372;52.294;5.152;2023-07-29T15:02:25;5.97;;;1.30;;
51288;SDS011;37372;52.294;5.152;2023-07-29T15:04:51;6.38;;;1.17;;
51288;SDS011;37372;52.294;5.152;2023-07-29T15:07:29;2.75;;;1.23;;
51288;SDS011;37372;52.294;5.152;2023-07-29T15:09:55;4.55;;;0.98;;
51288;SDS011;37372;52.294;5.152;2023-07-29T15:12:27;3.80;;;1.23;;
51288;SDS011;37372;52.294;5.152;2023-07-29T15:14:59;5.45;;;1.13;;
51288;SDS011;37372;52.294;5.152;2023-07-29T15:17:25;5.65;;;1.10;;
51288;SDS011;37372;52.294;5.152;2023-07-29T15:19:51;3.40;;;1.02;;
51288;SDS011;37372;52.294;5.152;2023-07-29T15:22:36;2.35;;;1.00;;
51288;SDS011;37372;52.294;5.152;2023-07-29T15:25:02;2.45;;;0.90;;
51288;SDS011;37372;52.294;5.152;2023-07-29T15:27:28;1.92;;;1.00;;
51288;SDS011;37372;52.294;5.152;2023-07-29T15:30:03;4.63;;;1.08;;
51288;SDS011;37372;52.294;5.152;2023-07-29T15:32:30;2.20;;;0.93;;
51288;SDS011;37372;52.294;5.152;2023-07-29T15:34:56;2.45;;;0.90;;
51288;SDS011;37372;52.294;5.152;2023-07-29T15:37:25;3.13;;;1.00;;
51288;SDS011;37372;52.294;5.152;2023-07-29T15:39:59;4.40;;;1.35;;
51288;SDS011;37372;52.294;5.152;2023-07-29T15:42:25;4.35;;;1.92;;